Terminal Aerodrome Forecast
Issued by NWS Sterling, VA

Current Version | Previous Version | Text Only | Print | Product List | Glossary Off
Versions: 1 2 3 4 5 6 7 8 9 10 11 12 13 14

000
FTUS41 KLWX 151700
TAFMRB
TAF
KMRB 151740Z 1518/1618 30009KT 1SM -RA BKN023 OVC040
     FM151900 31014KT 5SM -RA OVC050
     FM152200 31017KT 6SM -SHRA OVC050
     FM152300 31019G27KT P6SM SCT030 OVC050
     FM160200 32019G30KT P6SM FEW030 SCT090
     FM160700 32015KT P6SM FEW250
     FM161500 36012KT P6SM SKC=

USA.gov is the U.S. government's official web portal to all federal, state and local government web resources and services.